Terminal Aerodrome Forecast
Issued by NWS Newport/Morehead City, NC

Home | Current Version | Previous Version | Graphics & Text | Print | Product List | Glossary On
Versions: 1 2 3 4 5 6 7 8 9 10 11 12 13 14
000
FTUS42 KMHX 290500 RRA
TAFEWN
TAF
KEWN 290545Z 2906/3006 00000KT P6SM SKC
     FM291900 20006KT P6SM OVC150
     FM300000 21007KT P6SM OVC080=

USA.gov is the U.S. government's official web portal to all federal, state and local government web resources and services.